Cape Peony — 3FDX6 — position and weather

sailwx.info

Track history (hours):
 
Tides and Currents Weather Stations Pressure Air Temp Water Temp Dewpoint Dewpoint Depression Visibility Wind Speed Wind Dir Waves Ship Positions

Cape Peony

Last reported at 2015-Aug-02 13:33 UTC. Time now 2015-Aug-02 14:22 UTC.
Position N 31°09' E 122°40'.

Length 292 m; draft 11.2 m.

Type: Ship. MMSI: 373590000.

Date/timePositionNaut miles runAvg speedWind from/ knotsBaromVisibWave heightAir tempDewpointWater temp
2015-Aug-02 13:33N 31°09' E 122°40'0 0.2
2015-Aug-02 12:33N 31°09' E 122°40'0 0.2
2015-Aug-02 11:30N 31°09' E 122°40'0 0.1
2015-Aug-02 10:24N 31°09' E 122°40'0 0.1
2015-Aug-02 09:33N 31°09' E 122°40'0 0.1
2015-Aug-02 08:33N 31°09' E 122°40'0 0.1
2015-Aug-02 07:30N 31°09' E 122°40'0 0.1
2015-Aug-02 06:24N 31°09' E 122°40'0 0.1
2015-Aug-02 05:24N 31°09' E 122°40'0 0.2
2015-Aug-02 04:33N 31°09' E 122°40'0 0.1
2015-Aug-02 03:33N 31°09' E 122°40'0 0.0
2015-Aug-02 02:30N 31°09' E 122°40'0 0.0
2015-Aug-02 01:33N 31°09' E 122°40'0 0.2
2015-Aug-02 00:33N 31°09' E 122°40'0 0.2
2015-Aug-01 23:33N 31°09' E 122°40'0 0.1
2015-Aug-01 22:33N 31°09' E 122°40'0 0.1
2015-Aug-01 21:33N 31°09' E 122°40'0 0.1
2015-Aug-01 20:33N 31°09' E 122°40'0 0.1
2015-Aug-01 19:33N 31°09' E 122°40'0 0.1
2015-Aug-01 18:33N 31°09' E 122°40'0 0.1
2015-Aug-01 17:33N 31°09' E 122°40'0 0.1
2015-Aug-01 16:33N 31°09' E 122°40'0 0.1
2015-Aug-01 15:33N 31°09' E 122°40'0 0.1
2015-Aug-01 14:33N 31°09' E 122°40'0 0.1
2015-Aug-01 13:24N 31°09' E 122°40'0 0.1
2015-Aug-01 12:33N 31°09' E 122°40'0 0.1
2015-Aug-01 07:24N 31°09' E 122°40'0 0.1
2015-Aug-01 06:12N 31°09' E 122°40'0 0.2
2015-Aug-01 05:09N 31°09' E 122°40'0 0.1
2015-Aug-01 03:03N 31°09' E 122°40'0 0.0
2015-Aug-01 02:24N 31°09' E 122°40'0 0.1
2015-Aug-01 01:12N 31°09' E 122°40'0 0.1
2015-Aug-01 00:33N 31°09' E 122°40'0 0.2
2015-Jul-31 23:30N 31°09' E 122°40'0 0.2
2015-Jul-31 22:30N 31°09' E 122°40'0 0.1
2015-Jul-31 21:33N 31°09' E 122°40'0 0.1
2015-Jul-31 20:33N 31°09' E 122°40'0 0.0
2015-Jul-31 19:30N 31°09' E 122°40'0 0.1
2015-Jul-31 18:30N 31°09' E 122°40'0 0.1
2015-Jul-31 17:33N 31°09' E 122°40'0 0.1
2015-Jul-31 16:33N 31°09' E 122°40'0 0.1
2015-Jul-31 15:27N 31°09' E 122°40'0 0.1
2015-Jul-31 14:09N 31°09' E 122°40'0 0.0
2015-Jul-31 13:33N 31°09' E 122°40'0 0.1
2015-Jul-31 12:33N 31°09' E 122°40'0 0.2
2015-Jul-31 11:30N 31°09' E 122°40'0 0.1
2015-Jul-31 10:30N 31°09' E 122°40'0 0.1
2015-Jul-31 09:33N 31°09' E 122°40'0 0.1
2015-Jul-31 08:33N 31°09' E 122°40'0 0.0
2015-Jul-31 07:33N 31°09' E 122°40'0 0.1
2015-Jul-31 06:30N 31°09' E 122°40'0 0.1
2015-Jul-31 05:24N 31°09' E 122°40'0 0.2
2015-Jul-31 04:33N 31°09' E 122°40'1 1.3
2015-Jul-31 03:33N 31°08' E 122°41'7 6.8
2015-Jul-31 02:33N 31°06' E 122°48'1110.7
2015-Jul-31 01:33N 30°56' E 122°52'17 8.5
2015-Jul-30 23:33N 30°39' E 122°49'9 9.4
2015-Jul-30 22:33N 30°36' E 122°39'8 8.5
2015-Jul-30 21:33N 30°38' E 122°29'4 3.9
2015-Jul-30 20:31N 30°40' E 122°25'0 0.0
2015-Jul-30 19:31N 30°40' E 122°25'0 0.0
2015-Jul-30 18:19N 30°40' E 122°25'0 0.0
2015-Jul-30 13:31N 30°40' E 122°25'0 0.0
2015-Jul-30 09:31N 30°40' E 122°25'0 0.0
2015-Jul-30 07:22N 30°40' E 122°25'0 0.0
2015-Jul-30 06:31N 30°40' E 122°25'0 0.0
2015-Jul-29 17:31N 30°40' E 122°25'0 0.0
2015-Jul-29 16:31N 30°40' E 122°25'0 0.0
2015-Jul-29 13:19N 30°40' E 122°25'0 0.0
2015-Jul-29 06:21N 30°40' E 122°25'2 1.9
2015-Jul-29 05:32N 30°39' E 122°27'5 5.0
2015-Jul-29 04:33N 30°37' E 122°32'2 0.3
2015-Jul-28 23:25N 30°36' E 122°34'0 0.1
2015-Jul-28 22:28N 30°36' E 122°34'0 0.1
2015-Jul-28 21:31N 30°36' E 122°34'0 0.3
2015-Jul-28 20:16N 30°36' E 122°34'0 0.1
2015-Jul-28 19:22N 30°36' E 122°34'0 0.1
2015-Jul-28 18:31N 30°36' E 122°34'0 0.0
2015-Jul-28 17:16N 30°36' E 122°34'0 0.0
2015-Jul-28 16:31N 30°36' E 122°34'0 0.1
2015-Jul-28 15:25N 30°36' E 122°34'0 0.4
2015-Jul-28 14:25N 30°36' E 122°34'0 0.0
2015-Jul-28 13:19N 30°36' E 122°33'0 0.0
2015-Jul-28 09:19N 30°36' E 122°33'0 0.0
2015-Jul-28 07:22N 30°36' E 122°33'0 0.3
2015-Jul-28 06:31N 30°36' E 122°34'0 0.1
2015-Jul-28 05:25N 30°36' E 122°34'0 0.1
2015-Jul-27 23:19N 30°36' E 122°33'0 0.0
2015-Jul-27 21:04N 30°36' E 122°33'0 0.1
2015-Jul-27 20:07N 30°36' E 122°33'0 0.2
2015-Jul-27 19:28N 30°36' E 122°34'0 0.2
2015-Jul-27 18:25N 30°36' E 122°34'0 0.1
2015-Jul-27 17:31N 30°36' E 122°34'0 0.0
2015-Jul-27 16:31N 30°36' E 122°34'0 0.0
2015-Jul-27 15:22N 30°36' E 122°34'0 0.0
2015-Jul-27 14:19N 30°36' E 122°34'0 0.2
2015-Jul-27 13:28N 30°36' E 122°34'0 0.2
2015-Jul-27 12:22N 30°36' E 122°33'0 0.0
2015-Jul-27 10:25N 30°36' E 122°33'0 0.0
2015-Jul-27 08:10N 30°36' E 122°33'0 0.1
2015-Jul-27 07:28N 30°36' E 122°33'0 0.0
2015-Jul-27 06:04N 30°36' E 122°33'0 0.1
2015-Jul-27 01:31N 30°36' E 122°34'0 0.1
2015-Jul-27 00:31N 30°36' E 122°34'0 0.2
2015-Jul-26 23:28N 30°36' E 122°34'0 0.1
2015-Jul-26 22:28N 30°36' E 122°33'0 0.1
2015-Jul-26 21:28N 30°36' E 122°34'0 0.1
2015-Jul-26 20:28N 30°36' E 122°33'0 0.0
2015-Jul-26 19:28N 30°36' E 122°33'0 0.1
2015-Jul-26 18:28N 30°36' E 122°34'0 0.2
2015-Jul-26 17:28N 30°36' E 122°34'0 0.1
2015-Jul-26 16:22N 30°36' E 122°34'0 0.1
2015-Jul-26 15:31N 30°36' E 122°34'0 0.1
2015-Jul-26 14:28N 30°36' E 122°34'0 0.1
2015-Jul-26 12:22N 30°36' E 122°34'0 0.2
2015-Jul-26 11:22N 30°36' E 122°34'0 0.1
2015-Jul-26 10:28N 30°36' E 122°33'0 0.0
2015-Jul-26 09:28N 30°36' E 122°33'0 0.0
2015-Jul-26 08:10N 30°36' E 122°33'0 0.0
2015-Jul-26 07:31N 30°36' E 122°33'0 0.1
2015-Jul-26 06:28N 30°36' E 122°33'0 0.2
2015-Jul-26 05:31N 30°36' E 122°33'0 0.2
2015-Jul-26 03:25N 30°36' E 122°34'0 0.0
2015-Jul-25 23:07N 30°36' E 122°34'0 0.1
2015-Jul-25 20:04N 30°36' E 122°33'0 0.0
2015-Jul-25 18:19N 30°36' E 122°33'0 0.1
2015-Jul-25 17:28N 30°36' E 122°33'0 0.3
2015-Jul-25 16:13N 30°36' E 122°34'0 0.1
2015-Jul-25 14:28N 30°36' E 122°34'0 0.0
2015-Jul-25 13:28N 30°36' E 122°34'0 0.0
2015-Jul-25 12:16N 30°36' E 122°34'0 0.1
2015-Jul-25 11:31N 30°36' E 122°34'0 0.2
2015-Jul-25 09:25N 30°36' E 122°33'1 0.9
2015-Jul-25 08:33N 30°36' E 122°34'8 7.8
2015-Jul-25 07:32N 30°30' E 122°41'  
Track history (hours):
 
Tides and Currents Weather Stations Pressure Air Temp Water Temp Dewpoint Dewpoint Depression Visibility Wind Speed Wind Dir Waves Ship Positions

Cape Peony

Last reported at 2015-Aug-02 13:33 UTC. Time now 2015-Aug-02 14:22 UTC.
Position N 31°09' E 122°40'.

Length 292 m; draft 11.2 m.

Type: Ship. MMSI: 373590000.

Date/timePositionNaut miles runAvg speedWind from/ knotsBaromVisibWave heightAir tempDewpointWater temp
2015-Aug-02 13:33N 31°09' E 122°40'0 0.2
2015-Aug-02 12:33N 31°09' E 122°40'0 0.2
2015-Aug-02 11:30N 31°09' E 122°40'0 0.1
2015-Aug-02 10:24N 31°09' E 122°40'0 0.1
2015-Aug-02 09:33N 31°09' E 122°40'0 0.1
2015-Aug-02 08:33N 31°09' E 122°40'0 0.1
2015-Aug-02 07:30N 31°09' E 122°40'0 0.1
2015-Aug-02 06:24N 31°09' E 122°40'0 0.1
2015-Aug-02 05:24N 31°09' E 122°40'0 0.2
2015-Aug-02 04:33N 31°09' E 122°40'0 0.1
2015-Aug-02 03:33N 31°09' E 122°40'0 0.0
2015-Aug-02 02:30N 31°09' E 122°40'0 0.0
2015-Aug-02 01:33N 31°09' E 122°40'0 0.2
2015-Aug-02 00:33N 31°09' E 122°40'0 0.2
2015-Aug-01 23:33N 31°09' E 122°40'0 0.1
2015-Aug-01 22:33N 31°09' E 122°40'0 0.1
2015-Aug-01 21:33N 31°09' E 122°40'0 0.1
2015-Aug-01 20:33N 31°09' E 122°40'0 0.1
2015-Aug-01 19:33N 31°09' E 122°40'0 0.1
2015-Aug-01 18:33N 31°09' E 122°40'0 0.1
2015-Aug-01 17:33N 31°09' E 122°40'0 0.1
2015-Aug-01 16:33N 31°09' E 122°40'0 0.1
2015-Aug-01 15:33N 31°09' E 122°40'0 0.1
2015-Aug-01 14:33N 31°09' E 122°40'0 0.1
2015-Aug-01 13:24N 31°09' E 122°40'0 0.1
2015-Aug-01 12:33N 31°09' E 122°40'0 0.1
2015-Aug-01 07:24N 31°09' E 122°40'0 0.1
2015-Aug-01 06:12N 31°09' E 122°40'0 0.2
2015-Aug-01 05:09N 31°09' E 122°40'0 0.1
2015-Aug-01 03:03N 31°09' E 122°40'0 0.0
2015-Aug-01 02:24N 31°09' E 122°40'0 0.1
2015-Aug-01 01:12N 31°09' E 122°40'0 0.1
2015-Aug-01 00:33N 31°09' E 122°40'0 0.2
2015-Jul-31 23:30N 31°09' E 122°40'0 0.2
2015-Jul-31 22:30N 31°09' E 122°40'0 0.1
2015-Jul-31 21:33N 31°09' E 122°40'0 0.1
2015-Jul-31 20:33N 31°09' E 122°40'0 0.0
2015-Jul-31 19:30N 31°09' E 122°40'0 0.1
2015-Jul-31 18:30N 31°09' E 122°40'0 0.1
2015-Jul-31 17:33N 31°09' E 122°40'0 0.1
2015-Jul-31 16:33N 31°09' E 122°40'0 0.1
2015-Jul-31 15:27N 31°09' E 122°40'0 0.1
2015-Jul-31 14:09N 31°09' E 122°40'0 0.0
2015-Jul-31 13:33N 31°09' E 122°40'0 0.1
2015-Jul-31 12:33N 31°09' E 122°40'0 0.2
2015-Jul-31 11:30N 31°09' E 122°40'0 0.1
2015-Jul-31 10:30N 31°09' E 122°40'0 0.1
2015-Jul-31 09:33N 31°09' E 122°40'0 0.1
2015-Jul-31 08:33N 31°09' E 122°40'0 0.0
2015-Jul-31 07:33N 31°09' E 122°40'0 0.1
2015-Jul-31 06:30N 31°09' E 122°40'0 0.1
2015-Jul-31 05:24N 31°09' E 122°40'0 0.2
2015-Jul-31 04:33N 31°09' E 122°40'1 1.3
2015-Jul-31 03:33N 31°08' E 122°41'7 6.8
2015-Jul-31 02:33N 31°06' E 122°48'1110.7
2015-Jul-31 01:33N 30°56' E 122°52'17 8.5
2015-Jul-30 23:33N 30°39' E 122°49'9 9.4
2015-Jul-30 22:33N 30°36' E 122°39'8 8.5
2015-Jul-30 21:33N 30°38' E 122°29'4 3.9
2015-Jul-30 20:31N 30°40' E 122°25'0 0.0
2015-Jul-30 19:31N 30°40' E 122°25'0 0.0
2015-Jul-30 18:19N 30°40' E 122°25'0 0.0
2015-Jul-30 13:31N 30°40' E 122°25'0 0.0
2015-Jul-30 09:31N 30°40' E 122°25'0 0.0
2015-Jul-30 07:22N 30°40' E 122°25'0 0.0
2015-Jul-30 06:31N 30°40' E 122°25'0 0.0
2015-Jul-29 17:31N 30°40' E 122°25'0 0.0
2015-Jul-29 16:31N 30°40' E 122°25'0 0.0
2015-Jul-29 13:19N 30°40' E 122°25'0 0.0
2015-Jul-29 06:21N 30°40' E 122°25'2 1.9
2015-Jul-29 05:32N 30°39' E 122°27'5 5.0
2015-Jul-29 04:33N 30°37' E 122°32'2 0.3
2015-Jul-28 23:25N 30°36' E 122°34'0 0.1
2015-Jul-28 22:28N 30°36' E 122°34'0 0.1
2015-Jul-28 21:31N 30°36' E 122°34'0 0.3
2015-Jul-28 20:16N 30°36' E 122°34'0 0.1
2015-Jul-28 19:22N 30°36' E 122°34'0 0.1
2015-Jul-28 18:31N 30°36' E 122°34'0 0.0
2015-Jul-28 17:16N 30°36' E 122°34'0 0.0
2015-Jul-28 16:31N 30°36' E 122°34'0 0.1
2015-Jul-28 15:25N 30°36' E 122°34'0 0.4
2015-Jul-28 14:25N 30°36' E 122°34'0 0.0
2015-Jul-28 13:19N 30°36' E 122°33'0 0.0
2015-Jul-28 09:19N 30°36' E 122°33'0 0.0
2015-Jul-28 07:22N 30°36' E 122°33'0 0.3
2015-Jul-28 06:31N 30°36' E 122°34'0 0.1
2015-Jul-28 05:25N 30°36' E 122°34'0 0.1
2015-Jul-27 23:19N 30°36' E 122°33'0 0.0
2015-Jul-27 21:04N 30°36' E 122°33'0 0.1
2015-Jul-27 20:07N 30°36' E 122°33'0 0.2
2015-Jul-27 19:28N 30°36' E 122°34'0 0.2
2015-Jul-27 18:25N 30°36' E 122°34'0 0.1
2015-Jul-27 17:31N 30°36' E 122°34'0 0.0
2015-Jul-27 16:31N 30°36' E 122°34'0 0.0
2015-Jul-27 15:22N 30°36' E 122°34'0 0.0
2015-Jul-27 14:19N 30°36' E 122°34'0 0.2
2015-Jul-27 13:28N 30°36' E 122°34'0 0.2
2015-Jul-27 12:22N 30°36' E 122°33'0 0.0
2015-Jul-27 10:25N 30°36' E 122°33'0 0.0
2015-Jul-27 08:10N 30°36' E 122°33'0 0.1
2015-Jul-27 07:28N 30°36' E 122°33'0 0.0
2015-Jul-27 06:04N 30°36' E 122°33'0 0.1
2015-Jul-27 01:31N 30°36' E 122°34'0 0.1
2015-Jul-27 00:31N 30°36' E 122°34'0 0.2
2015-Jul-26 23:28N 30°36' E 122°34'0 0.1
2015-Jul-26 22:28N 30°36' E 122°33'0 0.1
2015-Jul-26 21:28N 30°36' E 122°34'0 0.1
2015-Jul-26 20:28N 30°36' E 122°33'0 0.0
2015-Jul-26 19:28N 30°36' E 122°33'0 0.1
2015-Jul-26 18:28N 30°36' E 122°34'0 0.2
2015-Jul-26 17:28N 30°36' E 122°34'0 0.1
2015-Jul-26 16:22N 30°36' E 122°34'0 0.1
2015-Jul-26 15:31N 30°36' E 122°34'0 0.1
2015-Jul-26 14:28N 30°36' E 122°34'0 0.1
2015-Jul-26 12:22N 30°36' E 122°34'0 0.2
2015-Jul-26 11:22N 30°36' E 122°34'0 0.1
2015-Jul-26 10:28N 30°36' E 122°33'0 0.0
2015-Jul-26 09:28N 30°36' E 122°33'0 0.0
2015-Jul-26 08:10N 30°36' E 122°33'0 0.0
2015-Jul-26 07:31N 30°36' E 122°33'0 0.1
2015-Jul-26 06:28N 30°36' E 122°33'0 0.2
2015-Jul-26 05:31N 30°36' E 122°33'0 0.2
2015-Jul-26 03:25N 30°36' E 122°34'0 0.0
2015-Jul-25 23:07N 30°36' E 122°34'0 0.1
2015-Jul-25 20:04N 30°36' E 122°33'0 0.0
2015-Jul-25 18:19N 30°36' E 122°33'0 0.1
2015-Jul-25 17:28N 30°36' E 122°33'0 0.3
2015-Jul-25 16:13N 30°36' E 122°34'0 0.1
2015-Jul-25 14:28N 30°36' E 122°34'0 0.0
2015-Jul-25 13:28N 30°36' E 122°34'0 0.0
2015-Jul-25 12:16N 30°36' E 122°34'0 0.1
2015-Jul-25 11:31N 30°36' E 122°34'0 0.2
2015-Jul-25 09:25N 30°36' E 122°33'1 0.9
2015-Jul-25 08:33N 30°36' E 122°34'8 7.8
2015-Jul-25 07:32N 30°30' E 122°41'  

Dump ship's entire track history